Terminal Aerodrome Forecast
Issued by NWS Topeka, KS

Home | Current Version | Previous Version | Text Only | Print | Product List | Glossary On
Versions: 1 2 3 4 5 6 7 8 9 10 11 12 13 14 15 16 17 18
000
FTUS43 KTOP 122300
TAFTOP
TAF
KTOP 122330Z 1300/1324 20010KT P6SM FEW080
     FM130800 33006KT P6SM -SHRA VCTS SCT050CB BKN100
     FM131300 01008KT P6SM SCT030 BKN100=

USA.gov is the U.S. government's official web portal to all federal, state and local government web resources and services.